Time;durP1;ratioP1;P1;durP2;ratioP2;P2;SDS_P1;SDS_P2;PMS_P1;PMS_P2;Temp;Humidity;BMP_temperature;BMP_pressure;BME280_temperature;BME280_humidity;BME280_pressure;Samples;Min_cycle;Max_cycle;Signal;HPM_P1;HPM_P2
2022/12/27 00:01:49;;;;;;;;;8.25;8.25;;;;;7.60;66.12;102447.16;6188517;22;45560;-86
2022/12/27 00:04:15;;;;;;;;;7.75;7.75;;;;;7.53;66.47;102421.56;6188739;22;47849;-90
2022/12/27 00:06:41;;;;;;;;;8.25;8.25;;;;;7.61;66.66;102434.09;6189200;22;45327;-87
2022/12/27 00:09:06;;;;;;;;;40.75;34.75;;;;;7.60;66.75;102432.31;6187636;22;45365;-90
2022/12/27 00:11:32;;;;;;;;;52.50;38.75;;;;;7.65;66.66;102443.88;6213521;22;45340;-88
2022/12/27 00:13:59;;;;;;;;;6.50;4.00;;;;;7.63;66.60;102448.16;6216459;22;45280;-90
2022/12/27 00:16:24;;;;;;;;;7.00;4.75;;;;;7.60;66.22;102436.69;6190027;22;45306;-85
2022/12/27 00:18:51;;;;;;;;;7.25;5.75;;;;;7.51;66.28;102427.66;6189505;22;45288;-88
2022/12/27 00:21:18;;;;;;;;;6.75;6.00;;;;;7.50;66.32;102432.81;6220400;22;45670;-89
2022/12/27 00:23:46;;;;;;;;;8.25;7.00;;;;;7.58;66.48;102444.47;6190698;22;47228;-90
2022/12/27 00:26:20;;;;;;;;;4.75;3.50;;;;;7.46;66.76;102437.06;6215220;22;45830;-89
2022/12/27 00:28:47;;;;;;;;;7.00;6.00;;;;;7.53;66.65;102448.66;6190254;22;45448;-87
2022/12/27 00:31:13;;;;;;;;;3.50;3.50;;;;;7.46;66.59;102447.56;6217899;22;45353;-88
2022/12/27 00:33:40;;;;;;;;;4.25;4.25;;;;;7.35;66.67;102430.56;6189631;22;46975;-88
2022/12/27 00:36:10;;;;;;;;;6.00;4.00;;;;;7.44;66.87;102448.34;6215167;22;45876;-87
2022/12/27 00:38:35;;;;;;;;;2.75;2.75;;;;;7.44;66.42;102451.84;6190115;22;45390;-86
2022/12/27 00:41:01;;;;;;;;;3.50;3.50;;;;;7.42;66.89;102450.00;6189349;22;45373;-86
2022/12/27 00:43:26;;;;;;;;;3.50;2.75;;;;;7.26;66.88;102424.97;6218330;22;45480;-86
2022/12/27 00:45:52;;;;;;;;;7.00;5.75;;;;;7.42;67.14;102460.47;6191037;22;45273;-87
2022/12/27 00:48:18;;;;;;;;;4.00;3.75;;;;;7.41;66.99;102463.94;6167340;22;45344;-84
2022/12/27 00:50:43;;;;;;;;;6.50;6.50;;;;;7.33;67.19;102457.53;6188940;22;45633;-86
2022/12/27 00:53:10;;;;;;;;;4.75;4.75;;;;;7.21;67.17;102442.22;6214289;22;47576;-88
2022/12/27 00:55:36;;;;;;;;;3.50;3.50;;;;;7.22;67.15;102449.28;6192010;22;45951;-86
2022/12/27 00:58:02;;;;;;;;;8.00;6.00;;;;;7.21;67.56;102456.22;6190534;22;45245;-86
2022/12/27 01:00:30;;;;;;;;;6.50;2.75;;;;;7.30;67.64;102471.41;6187342;22;45260;-85
2022/12/27 01:02:56;;;;;;;;;3.50;3.00;;;;;7.13;67.47;102451.53;6216786;22;45427;-86
2022/12/27 01:05:21;;;;;;;;;2.75;2.00;;;;;7.21;67.74;102465.81;6189981;22;45471;-86
2022/12/27 01:07:47;;;;;;;;;6.00;3.00;;;;;7.20;67.80;102467.53;6190477;22;45410;-86
2022/12/27 01:10:13;;;;;;;;;2.75;2.75;;;;;7.29;67.65;102485.31;6190149;22;45426;-87
2022/12/27 01:12:39;;;;;;;;;7.25;3.75;;;;;7.28;67.86;102489.66;6220152;22;45325;-86
2022/12/27 01:15:06;;;;;;;;;4.00;3.75;;;;;7.14;67.72;102463.81;6219693;22;45114;-86
2022/12/27 01:17:31;;;;;;;;;3.00;3.00;;;;;7.28;67.90;102496.66;6193735;22;45307;-86
2022/12/27 01:19:57;;;;;;;;;5.50;4.00;;;;;7.23;67.70;102479.84;6218811;22;45250;-86
2022/12/27 01:22:22;;;;;;;;;3.75;2.50;;;;;7.28;67.85;102481.81;6219094;22;45477;-85
2022/12/27 01:24:47;;;;;;;;;3.00;3.00;;;;;7.12;67.77;102452.38;6191493;22;45172;-86
2022/12/27 01:27:15;;;;;;;;;4.50;3.75;;;;;7.21;67.91;102473.66;6192837;22;45175;-86
2022/12/27 01:29:40;;;;;;;;;2.50;2.50;;;;;7.23;67.91;102475.50;6192391;22;45399;-86
2022/12/27 01:32:06;;;;;;;;;3.00;3.00;;;;;7.21;68.06;102471.03;6192427;22;47195;-86
2022/12/27 01:34:31;;;;;;;;;5.00;3.25;;;;;7.20;67.90;102474.50;6192155;22;45690;-86
2022/12/27 01:36:57;;;;;;;;;3.00;2.50;;;;;7.29;68.02;102482.69;6193240;22;45836;-86
2022/12/27 01:39:22;;;;;;;;;3.75;3.75;;;;;7.29;68.11;102488.81;6195340;22;45354;-86
2022/12/27 01:45:11;;;;;;;;;3.00;3.00;;;;;7.28;68.07;102496.66;6219649;22;45387;-87
2022/12/27 01:47:51;;;;;;;;;2.00;2.00;;;;;7.28;68.21;102494.03;6214450;22;45171;-87
2022/12/27 01:50:25;;;;;;;;;4.00;4.00;;;;;7.25;68.39;102494.81;6192210;22;45185;-87
2022/12/27 01:52:58;;;;;;;;;2.00;2.00;;;;;7.26;68.44;102493.06;6192068;22;47327;-86
2022/12/27 01:55:26;;;;;;;;;3.25;3.25;;;;;7.26;68.31;102498.31;6191272;22;45328;-87
2022/12/27 01:57:56;;;;;;;;;3.00;2.00;;;;;7.20;68.47;102491.13;6192547;22;45305;-86
2022/12/27 02:00:22;;;;;;;;;6.75;3.00;;;;;7.22;68.36;102492.06;6219028;22;45300;-86
2022/12/27 02:02:48;;;;;;;;;7.00;3.50;;;;;7.23;68.70;102492.94;6191798;22;47161;-87
2022/12/27 02:05:16;;;;;;;;;4.00;4.00;;;;;7.20;68.41;102487.59;6192976;22;45403;-86
2022/12/27 02:07:56;;;;;;;;;2.25;2.00;;;;;7.22;68.40;102499.03;6221589;22;45230;-86
2022/12/27 02:10:22;;;;;;;;;3.75;3.25;;;;;7.16;68.71;102496.16;6219580;22;45332;-86
2022/12/27 02:12:47;;;;;;;;;2.25;2.25;;;;;7.18;68.49;102491.88;6191131;22;48756;-86
2022/12/27 02:15:13;;;;;;;;;4.00;4.00;;;;;7.25;68.38;102504.38;6191009;22;45582;-87
2022/12/27 02:17:38;;;;;;;;;3.25;3.25;;;;;7.09;68.32;102478.44;6220001;22;45524;-83
2022/12/27 02:20:21;;;;;;;;;6.00;2.50;;;;;7.22;68.58;102502.53;6217206;22;45815;-85
2022/12/27 02:26:11;;;;;;;;;6.75;4.50;;;;;7.28;68.62;102508.00;6218812;22;45246;-85
2022/12/27 02:29:20;;;;;;;;;3.50;2.00;;;;;7.25;68.85;102504.38;6191706;22;45412;-85
2022/12/27 02:32:03;;;;;;;;;3.00;2.00;;;;;7.25;68.82;102505.28;6194360;22;45582;-86
2022/12/27 02:34:59;;;;;;;;;2.75;2.75;;;;;7.28;68.82;102512.38;6193553;22;47003;-85
2022/12/27 02:37:30;;;;;;;;;3.00;2.50;;;;;7.27;68.90;102508.84;6210894;22;45102;-86
2022/12/27 02:53:02;;;;;;;;;3.25;3.00;;;;;7.29;68.69;102503.66;6191988;22;45390;-87
2022/12/27 02:54:22;;;;;;;;;2.00;2.00;;;;;7.25;68.60;102500.03;6219020;22;45238;-86
2022/12/27 02:57:08;;;;;;;;;6.00;3.75;;;;;7.21;68.77;102492.88;6192075;22;46045;-85
2022/12/27 03:08:58;;;;;;;;;2.75;2.75;;;;;7.28;69.00;102520.22;6219341;22;45689;-86
2022/12/27 03:17:25;;;;;;;;;3.75;3.00;;;;;7.14;68.84;102483.03;6218523;22;45399;-86
2022/12/27 03:25:33;;;;;;;;;1.00;1.00;;;;;7.34;68.91;102498.59;6223062;22;45218;-86
2022/12/27 03:33:49;;;;;;;;;5.00;3.75;;;;;7.39;68.94;102513.66;6218646;22;45107;-86
2022/12/27 03:39:24;;;;;;;;;2.25;2.25;;;;;7.39;69.57;102518.91;6218753;22;45159;-86
2022/12/27 03:44:42;;;;;;;;;3.00;2.00;;;;;7.36;68.80;102510.94;6218978;22;45300;-86
2022/12/27 03:47:33;;;;;;;;;2.50;2.25;;;;;7.40;68.76;102517.16;6191365;22;45259;-87
2022/12/27 03:50:05;;;;;;;;;1.00;1.00;;;;;7.39;69.17;102523.25;6219366;22;45408;-86
2022/12/27 03:52:57;;;;;;;;;3.00;3.00;;;;;7.31;68.79;102508.97;6193963;22;48057;-86
2022/12/27 03:55:23;;;;;;;;;3.00;3.00;;;;;7.37;68.96;102522.28;6191116;22;45400;-85
2022/12/27 03:57:49;;;;;;;;;2.75;2.00;;;;;7.22;68.67;102493.81;6191766;22;45317;-86
2022/12/27 04:00:15;;;;;;;;;5.00;4.50;;;;;7.25;68.72;102504.38;6219085;22;45291;-86
2022/12/27 04:02:40;;;;;;;;;2.50;2.50;;;;;7.26;68.84;102500.94;6191775;22;48173;-86
2022/12/27 04:05:07;;;;;;;;;3.00;3.00;;;;;7.20;69.04;102495.47;6191264;22;45369;-86
2022/12/27 04:07:32;;;;;;;;;2.75;2.75;;;;;7.26;68.76;102507.06;6191466;22;45235;-86
2022/12/27 04:34:42;;;;;;;;;7.50;5.25;;;;;7.32;69.05;102527.34;6217775;22;45625;-86
2022/12/27 04:37:13;;;;;;;;;7.00;4.00;;;;;7.19;69.07;102506.75;6218770;22;45114;-86
2022/12/27 04:39:39;;;;;;;;;10.25;8.00;;;;;7.18;69.25;102516.34;6191817;22;45481;-86
2022/12/27 04:56:03;;;;;;;;;5.50;3.75;;;;;7.27;69.17;102523.66;6217918;22;45213;-86
2022/12/27 04:58:29;;;;;;;;;6.50;3.25;;;;;7.28;69.22;102525.47;6216266;22;46015;-87
2022/12/27 05:03:43;;;;;;;;;4.25;3.00;;;;;7.15;69.23;102507.47;6217465;22;45297;-86
2022/12/27 05:06:09;;;;;;;;;6.75;4.00;;;;;7.23;69.00;102519.16;6190399;22;47298;-86
2022/12/27 05:14:09;;;;;;;;;4.50;3.75;;;;;7.18;69.61;102515.47;6217757;22;45253;-86
2022/12/27 05:16:39;;;;;;;;;6.50;5.50;;;;;7.18;69.42;102515.47;6215283;22;47259;-86
2022/12/27 05:19:06;;;;;;;;;6.50;6.50;;;;;7.16;69.59;102518.00;6190181;22;45205;-86
2022/12/27 05:21:36;;;;;;;;;4.50;4.50;;;;;7.17;69.69;102521.53;6190786;22;45213;-87
2022/12/27 05:26:46;;;;;;;;;5.25;4.00;;;;;7.05;69.44;102499.25;6217556;22;45263;-85
2022/12/27 05:29:11;;;;;;;;;4.00;3.00;;;;;7.17;69.86;102517.19;6217267;22;45366;-85
2022/12/27 05:31:39;;;;;;;;;4.00;4.00;;;;;7.12;69.99;102504.75;6191062;22;45422;-86
2022/12/27 05:34:05;;;;;;;;;6.25;6.25;;;;;7.18;69.80;102505.88;6220861;22;45140;-87
2022/12/27 05:36:31;;;;;;;;;7.50;6.25;;;;;7.02;69.85;102474.69;6195601;22;46366;-86
2022/12/27 05:38:58;;;;;;;;;4.00;2.75;;;;;7.19;69.83;102501.50;6193806;22;45304;-87
2022/12/27 05:41:23;;;;;;;;;7.75;6.00;;;;;7.07;69.80;102491.47;6219397;22;45375;-86
2022/12/27 05:43:49;;;;;;;;;5.75;5.75;;;;;7.12;69.92;102503.03;6219279;22;45336;-86
2022/12/27 05:46:20;;;;;;;;;4.00;3.50;;;;;7.16;69.76;102509.25;6191883;22;47071;-87
2022/12/27 05:48:46;;;;;;;;;6.25;3.00;;;;;7.17;69.83;102511.94;6218891;22;45170;-86
2022/12/27 05:51:17;;;;;;;;;5.75;3.50;;;;;7.04;69.80;102491.34;6191804;22;45216;-85
2022/12/27 05:53:43;;;;;;;;;5.25;4.00;;;;;7.10;69.52;102502.06;6191479;22;46197;-86
2022/12/27 05:56:14;;;;;;;;;3.00;2.25;;;;;7.12;69.61;102502.13;6191826;22;47017;-87
2022/12/27 05:58:40;;;;;;;;;3.00;3.00;;;;;7.01;69.46;102478.16;6191551;22;46052;-87
2022/12/27 06:01:08;;;;;;;;;6.50;3.50;;;;;7.07;69.77;102491.47;6193139;22;45395;-86
2022/12/27 06:03:33;;;;;;;;;3.50;3.50;;;;;7.14;69.67;102503.97;6222011;22;45269;-86
2022/12/27 06:06:01;;;;;;;;;5.50;5.50;;;;;7.01;69.75;102459.81;6192960;22;47058;-86
2022/12/27 06:08:27;;;;;;;;;4.00;3.00;;;;;7.16;69.67;102483.06;6218978;22;45230;-86
2022/12/27 06:11:08;;;;;;;;;3.00;3.00;;;;;7.13;69.48;102481.22;6191900;22;45189;-87
2022/12/27 06:13:35;;;;;;;;;6.25;3.00;;;;;7.14;69.38;102484.75;6191938;22;45394;-86
2022/12/27 06:16:02;;;;;;;;;6.75;3.75;;;;;7.13;69.59;102485.56;6218738;22;46568;-85
2022/12/27 06:18:29;;;;;;;;;7.00;5.75;;;;;7.16;69.73;102483.06;6192004;22;45282;-87
2022/12/27 06:21:10;;;;;;;;;5.25;3.00;;;;;7.03;69.61;102463.38;6192324;22;45369;-85
2022/12/27 06:23:38;;;;;;;;;3.25;3.25;;;;;7.17;69.13;102491.00;6218458;22;45212;-84
2022/12/27 06:26:13;;;;;;;;;11.00;5.00;;;;;7.11;69.39;102480.28;6191926;22;48105;-84
2022/12/27 06:28:38;;;;;;;;;4.00;4.00;;;;;7.12;69.31;102481.19;6218350;22;45381;-85
2022/12/27 06:31:04;;;;;;;;;6.25;5.00;;;;;7.21;69.83;102498.13;6219017;22;45157;-85
2022/12/27 06:33:29;;;;;;;;;3.00;3.00;;;;;7.23;69.39;102500.81;6219378;22;45441;-86
2022/12/27 06:35:56;;;;;;;;;3.00;2.00;;;;;7.24;69.17;102502.59;6219576;22;45297;-87
2022/12/27 06:38:22;;;;;;;;;4.00;2.75;;;;;7.06;69.36;102459.16;6220641;22;46188;-86
2022/12/27 06:40:49;;;;;;;;;3.50;3.50;;;;;7.20;69.15;102487.59;6192203;22;45537;-87
2022/12/27 06:43:14;;;;;;;;;6.75;4.00;;;;;7.26;69.00;102493.94;6191362;22;45351;-85
2022/12/27 06:45:40;;;;;;;;;6.50;4.50;;;;;7.24;69.01;102486.88;6191162;22;47220;-87
2022/12/27 06:48:05;;;;;;;;;2.25;2.25;;;;;7.28;69.11;102496.66;6218157;22;45153;-85
2022/12/27 06:50:31;;;;;;;;;3.50;3.50;;;;;7.11;68.63;102467.19;6192160;22;45115;-86
2022/12/27 06:52:56;;;;;;;;;3.75;2.75;;;;;7.28;69.29;102499.25;6195440;22;45237;-85
2022/12/27 06:55:22;;;;;;;;;8.00;4.00;;;;;7.31;69.13;102502.00;6192223;22;48142;-84
2022/12/27 06:57:48;;;;;;;;;3.75;3.75;;;;;7.18;69.36;102479.69;6219743;22;45190;-85
2022/12/27 07:00:15;;;;;;;;;6.00;4.00;;;;;7.34;68.95;102504.72;6191746;22;45175;-85
2022/12/27 07:02:40;;;;;;;;;5.25;4.75;;;;;7.36;68.83;102499.56;6216089;22;45602;-84
2022/12/27 07:05:06;;;;;;;;;7.50;7.00;;;;;7.36;68.86;102499.56;6217741;22;45383;-85
2022/12/27 07:07:35;;;;;;;;;7.50;6.00;;;;;7.37;68.96;102496.97;6191201;22;45619;-85
2022/12/27 07:10:00;;;;;;;;;7.75;6.50;;;;;7.37;68.88;102499.59;6190274;22;45372;-85
2022/12/27 07:12:26;;;;;;;;;5.75;4.25;;;;;7.34;68.78;102494.25;6218340;22;45490;-86
2022/12/27 07:14:51;;;;;;;;;8.25;6.75;;;;;7.39;68.95;102503.19;6221038;22;45241;-84
2022/12/27 07:17:16;;;;;;;;;10.75;8.00;;;;;7.27;68.92;102476.50;6228673;22;45142;-85
2022/12/27 07:19:42;;;;;;;;;8.25;6.50;;;;;7.32;68.72;102490.66;6231195;22;45107;-88
2022/12/27 07:22:07;;;;;;;;;7.25;7.00;;;;;7.26;68.66;102482.59;6232174;22;45197;-85
2022/12/27 07:24:32;;;;;;;;;7.50;5.00;;;;;7.20;68.99;102485.88;6194290;22;48142;-87
2022/12/27 07:27:00;;;;;;;;;7.50;6.25;;;;;7.24;69.02;102494.72;6193363;22;45184;-88
2022/12/27 07:29:26;;;;;;;;;6.00;6.00;;;;;7.18;69.06;102481.41;6193367;22;45277;-88
2022/12/27 07:31:51;;;;;;;;;4.75;4.75;;;;;7.32;68.96;102508.13;6198240;22;45383;-86
2022/12/27 07:34:17;;;;;;;;;4.50;4.50;;;;;7.18;69.09;102497.13;6227642;22;46722;-87
2022/12/27 07:36:42;;;;;;;;;6.00;6.00;;;;;7.24;68.98;102497.34;6192065;22;45256;-88
2022/12/27 07:39:08;;;;;;;;;5.50;5.50;;;;;7.30;69.00;102513.31;6220129;22;45275;-88
2022/12/27 07:41:34;;;;;;;;;4.00;4.00;;;;;7.29;68.68;102512.41;6219445;22;45379;-88
2022/12/27 07:44:01;;;;;;;;;3.50;3.50;;;;;7.25;68.85;102504.38;6220723;22;46135;-89
2022/12/27 07:46:26;;;;;;;;;3.50;2.00;;;;;7.29;68.75;102508.91;6191030;22;45183;-88
2022/12/27 07:48:57;;;;;;;;;6.00;3.25;;;;;7.12;68.85;102484.69;6192119;22;45188;-87
2022/12/27 07:51:23;;;;;;;;;7.25;7.00;;;;;7.17;68.67;102501.47;6217791;22;45899;-87
2022/12/27 07:53:50;;;;;;;;;6.50;6.00;;;;;7.26;68.87;102509.66;6194290;22;47225;-89
2022/12/27 07:56:21;;;;;;;;;6.75;6.75;;;;;7.13;68.83;102490.81;6192969;22;45720;-87
2022/12/27 07:58:48;;;;;;;;;6.50;5.25;;;;;7.27;68.94;102511.47;6192653;22;45296;-86
2022/12/27 08:01:15;;;;;;;;;3.75;3.75;;;;;7.28;68.72;102515.88;6217844;22;45355;-88
2022/12/27 08:03:41;;;;;;;;;3.00;3.00;;;;;7.30;68.55;102513.31;6190776;22;46895;-87
2022/12/27 08:06:15;;;;;;;;;3.00;2.75;;;;;7.31;68.66;102508.97;6218759;22;45360;-86
2022/12/27 08:08:44;;;;;;;;;3.25;3.25;;;;;7.26;68.70;102508.78;6190318;22;45139;-88
2022/12/27 08:11:10;;;;;;;;;4.75;3.25;;;;;7.27;68.55;102500.06;6191018;22;45394;-88
2022/12/27 08:13:36;;;;;;;;;5.00;4.00;;;;;7.28;68.87;102505.38;6216163;22;47824;-88
2022/12/27 08:16:02;;;;;;;;;4.25;4.25;;;;;7.30;68.57;102505.47;6218938;22;45307;-88
2022/12/27 08:18:28;;;;;;;;;6.00;3.00;;;;;7.39;68.84;102518.00;6191522;22;45163;-87
2022/12/27 08:20:54;;;;;;;;;3.00;2.50;;;;;7.40;68.52;102517.16;6212299;22;45283;-88
2022/12/27 08:23:19;;;;;;;;;3.00;3.00;;;;;7.43;68.44;102525.13;6190227;22;47347;-89
2022/12/27 08:25:45;;;;;;;;;3.75;3.00;;;;;7.28;68.42;102492.28;6190877;22;45250;-88
2022/12/27 08:28:13;;;;;;;;;7.25;4.00;;;;;7.39;68.57;102511.03;6190779;22;45284;-87
2022/12/27 08:30:41;;;;;;;;;11.75;6.00;;;;;7.46;68.30;102520.94;6190923;22;45183;-88
2022/12/27 08:33:08;;;;;;;;;6.00;4.00;;;;;7.39;68.34;102503.19;6190402;22;47998;-89
2022/12/27 08:35:40;;;;;;;;;5.00;5.00;;;;;7.53;68.29;102518.53;6191612;22;45745;-89
2022/12/27 08:38:06;;;;;;;;;3.50;3.50;;;;;7.44;68.26;102500.75;6191912;22;45384;-89
2022/12/27 08:40:32;;;;;;;;;4.00;4.00;;;;;7.55;68.13;102525.59;6216369;22;45288;-86
2022/12/27 08:42:58;;;;;;;;;2.75;2.75;;;;;7.57;68.24;102520.44;6219449;22;45376;-90
2022/12/27 08:45:23;;;;;;;;;3.50;2.50;;;;;7.39;68.14;102497.94;6192379;22;45384;-89
2022/12/27 08:47:49;;;;;;;;;4.00;4.00;;;;;7.51;67.92;102523.69;6191624;22;45348;-91
2022/12/27 08:50:15;;;;;;;;;7.50;4.00;;;;;7.57;67.92;102533.53;6193398;22;45514;-91
2022/12/27 08:52:40;;;;;;;;;7.25;6.00;;;;;7.60;68.05;102536.28;6217409;22;46787;-90
2022/12/27 08:55:06;;;;;;;;;4.25;3.00;;;;;7.59;67.81;102523.97;6192495;22;45396;-91
2022/12/27 08:57:31;;;;;;;;;5.25;5.25;;;;;7.63;67.86;102537.28;6193320;22;45179;-93
2022/12/27 08:59:57;;;;;;;;;4.00;4.00;;;;;7.68;67.83;102533.09;6194749;22;45212;-91
2022/12/27 09:02:22;;;;;;;;;3.75;3.75;;;;;7.70;67.63;102548.91;6216273;22;48154;-86
2022/12/27 09:04:47;;;;;;;;;2.75;2.75;;;;;7.66;67.47;102533.88;6190437;22;45264;-87
2022/12/27 09:07:13;;;;;;;;;3.25;3.00;;;;;7.73;67.45;102539.41;6218641;22;45095;-89
2022/12/27 09:09:39;;;;;;;;;3.50;3.50;;;;;7.71;67.87;102534.94;6176430;23;45266;-90
2022/12/27 09:12:04;;;;;;;;;3.00;3.00;;;;;7.80;67.20;102550.09;6163058;23;46979;-90
2022/12/27 09:14:30;;;;;;;;;3.75;3.00;;;;;7.78;67.25;102536.97;6162897;23;45352;-89
2022/12/27 09:16:55;;;;;;;;;5.50;5.00;;;;;7.77;67.19;102526.41;6163149;23;45296;-90
2022/12/27 09:19:21;;;;;;;;;8.25;4.00;;;;;7.75;67.51;102518.47;6187828;23;45426;-91
2022/12/27 09:21:46;;;;;;;;;4.50;4.00;;;;;7.99;67.32;102546.41;6163015;23;46876;-91
2022/12/27 09:24:12;;;;;;;;;7.00;4.75;;;;;8.05;67.26;102557.16;6163358;23;45318;-90
2022/12/27 09:26:38;;;;;;;;;6.25;4.25;;;;;8.10;67.00;102551.22;6189315;23;45297;-89
2022/12/27 09:29:04;;;;;;;;;2.00;2.00;;;;;8.13;66.96;102550.44;6162537;23;45348;-89
2022/12/27 09:31:30;;;;;;;;;4.75;3.75;;;;;8.16;66.61;102558.44;6188153;23;46589;-89
2022/12/27 09:33:56;;;;;;;;;8.50;5.00;;;;;8.05;66.65;102536.16;6162822;23;45210;-89
2022/12/27 09:36:25;;;;;;;;;5.75;5.75;;;;;8.08;66.59;102550.28;6164215;23;45182;-90
2022/12/27 09:38:56;;;;;;;;;6.50;5.25;;;;;8.13;66.58;102553.06;6166619;23;45587;-90
2022/12/27 09:41:34;;;;;;;;;6.25;6.25;;;;;8.15;66.67;102568.03;6162908;23;47406;-89
2022/12/27 09:44:02;;;;;;;;;8.00;7.00;;;;;8.29;66.51;102580.75;6162206;23;45300;-92
2022/12/27 09:46:40;;;;;;;;;5.75;4.50;;;;;8.27;66.40;102559.69;6162047;23;45294;-90
2022/12/27 09:49:17;;;;;;;;;6.75;4.75;;;;;8.37;66.56;102569.66;6163470;23;45198;-87
2022/12/27 09:52:05;;;;;;;;;7.50;7.00;;;;;8.41;66.40;102573.31;6162595;23;46882;-90
2022/12/27 09:54:44;;;;;;;;;6.50;4.00;;;;;8.45;66.14;102575.22;6162662;23;45952;-89
2022/12/27 09:57:20;;;;;;;;;9.50;7.50;;;;;8.43;66.00;102547.13;6162646;23;45357;-88
2022/12/27 09:59:48;;;;;;;;;6.00;6.00;;;;;8.52;65.95;102563.19;6162210;23;45238;-89
2022/12/27 10:02:21;;;;;;;;;7.25;7.00;;;;;8.56;66.13;102557.22;6162088;23;47207;-88
2022/12/27 10:04:47;;;;;;;;;8.00;6.50;;;;;8.59;65.97;102559.94;6160077;23;45723;-87
2022/12/27 10:07:22;;;;;;;;;7.50;5.25;;;;;8.69;65.92;102556.78;6188798;23;45360;-92
2022/12/27 10:10:25;;;;;;;;;4.00;4.00;;;;;8.72;65.94;102545.50;6197321;22;45516;-91
2022/12/27 10:13:21;;;;;;;;;7.75;5.00;;;;;8.73;65.58;102539.38;6221785;22;47054;-84
2022/12/27 10:16:24;;;;;;;;;8.50;5.00;;;;;8.75;65.28;102535.09;6209930;22;45253;-86
2022/12/27 10:19:32;;;;;;;;;6.75;6.50;;;;;8.83;65.53;102541.47;6221625;22;45324;-90
2022/12/27 10:22:18;;;;;;;;;7.00;4.25;;;;;8.96;65.19;102534.91;6219463;22;45516;-86
2022/12/27 10:24:50;;;;;;;;;7.25;5.50;;;;;9.10;65.09;102523.06;6243324;22;48182;-85
2022/12/27 10:27:27;;;;;;;;;10.00;5.50;;;;;9.28;64.94;102521.00;6217170;22;45214;-86
2022/12/27 10:29:54;;;;;;;;;4.50;4.25;;;;;9.43;64.74;102517.94;6215337;22;45436;-87
2022/12/27 10:32:21;;;;;;;;;3.00;2.00;;;;;9.56;64.29;102506.03;6247329;22;45341;-85
2022/12/27 10:34:54;;;;;;;;;5.75;4.75;;;;;10.21;64.76;102518.34;6247466;22;45560;-86
2022/12/27 10:37:20;;;;;;;;;4.50;3.50;;;;;11.27;64.21;102517.44;6219434;22;45387;-86
2022/12/27 10:39:45;;;;;;;;;5.75;5.00;;;;;12.19;62.34;102520.19;6246772;22;45343;-87
2022/12/27 10:42:34;;;;;;;;;5.00;5.00;;;;;12.80;61.03;102523.88;6245481;22;45463;-87
2022/12/27 10:45:31;;;;;;;;;6.25;6.00;;;;;13.33;59.29;102520.28;6219598;22;48098;-86
2022/12/27 10:48:11;;;;;;;;;6.25;6.25;;;;;13.90;58.76;102520.13;6219764;22;46096;-84
2022/12/27 10:50:37;;;;;;;;;5.25;4.25;;;;;14.75;58.19;102513.88;6219142;22;45402;-84
2022/12/27 10:53:02;;;;;;;;;7.33;6.00;;;;;15.76;57.50;102513.53;6247259;22;45376;-86
2022/12/27 10:55:38;;;;;;;;;6.00;5.33;;;;;16.97;55.92;102512.78;6218400;22;46294;-85
2022/12/27 10:58:43;;;;;;;;;3.00;3.00;;;;;17.94;53.25;102518.66;6219123;22;45980;-85
2022/12/27 11:01:28;;;;;;;;;8.67;4.67;;;;;18.57;51.68;102514.66;6120708;23;45452;-84
2022/12/27 11:04:17;;;;;;;;;2.33;2.00;;;;;19.24;50.06;102505.13;6239780;22;45407;-86
2022/12/27 11:06:44;;;;;;;;;1.00;1.00;;;;;19.74;48.59;102503.63;6243629;22;47227;-85
2022/12/27 11:09:29;;;;;;;;;4.33;3.67;;;;;20.13;47.10;102501.25;6218587;22;45405;-84
2022/12/27 11:12:27;;;;;;;;;4.00;4.00;;;;;20.75;46.36;102494.03;6218062;22;45332;-84
2022/12/27 11:15:22;;;;;;;;;3.00;3.00;;;;;21.34;44.79;102497.34;6194909;22;45806;-81
2022/12/27 11:17:51;;;;;;;;;3.00;3.00;;;;;21.81;43.47;102478.47;6222879;22;47211;-84
2022/12/27 11:20:31;;;;;;;;;5.00;2.00;;;;;22.35;42.38;102469.19;6217548;22;45162;-82
2022/12/27 11:23:01;;;;;;;;;1.33;1.33;;;;;22.83;41.24;102475.06;6216325;22;45426;-86
2022/12/27 11:25:28;;;;;;;;;1.00;1.00;;;;;23.21;40.75;102466.91;6246315;22;45146;-86
2022/12/27 11:28:01;;;;;;;;;6.33;2.00;;;;;23.69;39.55;102469.91;6218640;22;47189;-85
2022/12/27 11:30:38;;;;;;;;;2.67;2.67;;;;;23.91;38.34;102451.31;6244431;22;45317;-82
2022/12/27 11:33:22;;;;;;;;;1.67;1.67;;;;;24.12;37.21;102444.34;6218275;22;45196;-84
2022/12/27 11:35:52;;;;;;;;;2.33;2.33;;;;;24.27;37.05;102429.50;6244732;22;45237;-83
2022/12/27 11:38:29;;;;;;;;;0.67;0.67;;;;;24.47;36.11;102430.66;6218542;22;46873;-86
2022/12/27 11:41:03;;;;;;;;;3.33;1.67;;;;;24.79;35.60;102433.06;6218929;22;45407;-85
2022/12/27 11:43:39;;;;;;;;;2.67;1.67;;;;;24.96;34.90;102418.09;6219225;22;45388;-88
2022/12/27 11:46:31;;;;;;;;;3.00;1.67;;;;;25.26;34.41;102416.06;6218988;22;45421;-88
2022/12/27 11:48:57;;;;;;;;;1.33;1.33;;;;;25.61;33.50;102425.47;6246667;22;46253;-86
2022/12/27 11:51:44;;;;;;;;;1.33;1.33;;;;;25.72;32.87;102430.44;6221356;22;45461;-87
2022/12/27 11:54:22;;;;;;;;;2.00;1.00;;;;;25.66;31.79;102428.88;6248986;22;45320;-87
2022/12/27 11:56:59;;;;;;;;;3.00;1.67;;;;;25.46;31.94;102428.78;6248242;22;45232;-86
2022/12/27 12:00:02;;;;;;;;;0.33;0.33;;;;;25.27;31.15;102423.22;6220630;22;47249;-86
2022/12/27 12:02:46;;;;;;;;;2.67;1.33;;;;;25.48;31.07;102433.19;6183352;22;45313;-87
2022/12/27 12:05:24;;;;;;;;;2.00;2.00;;;;;25.45;30.67;102427.91;6220059;22;45208;-88
2022/12/27 12:08:17;;;;;;;;;2.33;2.33;;;;;25.29;30.48;102432.16;6219487;22;45253;-86
2022/12/27 12:10:55;;;;;;;;;1.00;0.67;;;;;24.79;30.54;102427.66;6219437;22;48263;-88
2022/12/27 12:13:51;;;;;;;;;0.67;0.67;;;;;23.60;30.01;102423.59;6219928;22;45376;-89
2022/12/27 12:16:39;;;;;;;;;2.33;1.33;;;;;22.48;30.87;102435.75;6222611;22;45300;-88
2022/12/27 12:19:23;;;;;;;;;3.00;1.67;;;;;21.44;31.76;102436.44;6220217;22;45460;-89
2022/12/27 12:22:07;;;;;;;;;6.33;5.00;;;;;20.75;32.21;102429.78;6220344;22;47838;-89
2022/12/27 12:24:55;;;;;;;;;1.00;1.00;;;;;20.10;32.83;102421.09;6221092;22;45706;-89
2022/12/27 12:27:54;;;;;;;;;1.33;1.33;;;;;19.66;33.66;102423.56;6220489;22;45366;-90
2022/12/27 12:30:39;;;;;;;;;1.67;1.33;;;;;19.25;33.97;102416.97;6247920;22;45308;-89
2022/12/27 12:33:32;;;;;;;;;1.33;1.00;;;;;18.82;34.47;102406.81;6219643;22;46947;-87
2022/12/27 12:36:06;;;;;;;;;1.00;1.00;;;;;18.50;34.81;102397.34;6218257;22;45311;-84
2022/12/27 12:38:48;;;;;;;;;1.33;1.33;;;;;18.31;35.29;102398.44;6219117;22;45237;-88
2022/12/27 12:41:46;;;;;;;;;2.67;2.00;;;;;18.00;35.23;102395.16;6243280;22;45208;-89
2022/12/27 12:44:30;;;;;;;;;4.67;2.67;;;;;17.82;35.99;102396.16;6220662;22;47341;-88
2022/12/27 12:47:09;;;;;;;;;0.33;0.33;;;;;17.67;36.26;102383.81;6250768;22;45350;-94
2022/12/27 12:49:48;;;;;;;;;4.33;3.00;;;;;17.62;36.97;102385.63;6252394;22;45160;-90
2022/12/27 12:52:14;;;;;;;;;3.33;3.00;;;;;17.57;36.93;102376.78;6223069;22;45402;-94
2022/12/27 12:54:52;;;;;;;;;2.00;2.00;;;;;17.44;36.76;102377.75;6225049;22;47032;-90
2022/12/27 12:57:44;;;;;;;;;2.33;2.33;;;;;17.17;36.50;102361.91;6224965;22;45220;-93
2022/12/27 13:00:29;;;;;;;;;1.00;1.00;;;;;17.13;37.07;102356.59;6221350;22;45284;-87
2022/12/27 13:02:58;;;;;;;;;3.00;2.00;;;;;17.09;37.28;102362.84;6221434;22;45304;-91
2022/12/27 13:05:44;;;;;;;;;2.00;1.67;;;;;16.92;37.43;102342.53;6221938;22;47053;-91
2022/12/27 13:08:38;;;;;;;;;1.33;0.33;;;;;16.96;37.54;102356.69;6222889;22;45230;-89
2022/12/27 13:11:23;;;;;;;;;1.00;1.00;;;;;17.01;37.58;102346.03;6223007;22;45241;-92
2022/12/27 13:14:11;;;;;;;;;1.00;1.00;;;;;17.09;37.50;102341.56;6222893;22;45874;-83
2022/12/27 13:16:57;;;;;;;;;2.33;2.00;;;;;17.34;37.61;102342.28;6253091;22;46344;-90
2022/12/27 13:19:56;;;;;;;;;2.33;2.00;;;;;17.97;37.61;102337.44;6251021;22;45389;-90
2022/12/27 13:22:45;;;;;;;;;2.00;2.00;;;;;19.41;37.49;102328.66;6225800;22;45191;-92
2022/12/27 13:25:38;;;;;;;;;0.67;0.67;;;;;20.95;36.62;102333.00;6251796;22;45216;-88
2022/12/27 13:28:35;;;;;;;;;1.33;1.00;;;;;22.03;34.50;102328.69;6223743;22;47755;-91
2022/12/27 13:31:25;;;;;;;;;1.33;1.33;;;;;22.74;33.50;102321.38;6223729;22;45333;-93
2022/12/27 13:34:21;;;;;;;;;2.00;2.00;;;;;23.19;32.30;102319.13;6223721;22;45218;-91
2022/12/27 13:37:11;;;;;;;;;3.00;1.00;;;;;23.34;32.17;102307.03;6224362;22;45550;-94